KDRA/DRA METAR and TAF weather

Enter ICAO airport designator
Station Type Date Time Source
KDRA METAR 2021/05/12 00:53 UTC NOAA

KDRA 120053Z AUTO 22009KT 10SM CLR 28/M12 A2993 RMK AO2 SLP094 T02781122


Station Type Date Time Source
KDRA Decoded METAR 2021/05/12 00:53 UTC NOAA

DESERT ROCK AIRPORT, NV, United States (KDRA) 36-38N 116-02W 1006M
May 11, 2021 - 08:53 PM EDT / 2021.05.12 0053 UTC
Wind: from the SW (220 degrees) at 10 MPH (9 KT):0
Visibility: 10 mile(s):0
Sky conditions: clear
Temperature: 82.0 F (27.8 C)
Dew Point: 10.0 F (-12.2 C)
Relative Humidity: 6%
Pressure (altimeter): 29.93 in. Hg (1013 hPa)
ob: KDRA 120053Z AUTO 22009KT 10SM CLR 28/M12 A2993 RMK AO2 SLP094 T02781122
cycle: 1

Station Type Date Time Source
KDRA TAF 2011/12/07 06:36 UTC NOAA

TAF KDRA 070532Z 0706/0806 VRB04KT P6SM SKC

Example: see airport list